Time;durP1;ratioP1;P1;durP2;ratioP2;P2;SDS_P1;SDS_P2;PMS_P1;PMS_P2;Temp;Humidity;BMP_temperature;BMP_pressure;BME280_temperature;BME280_humidity;BME280_pressure;Samples;Min_cycle;Max_cycle;Signal;HPM_P1;HPM_P2
2023/02/19 00:14:51;;;;;;;7.50;2.40;;;;;;;2.62;100.00;98438.33;102178;1291;602578;-64
2023/02/19 00:17:20;;;;;;;7.40;2.40;;;;;;;3.17;100.00;98429.89;103611;1275;61311;-60
2023/02/19 00:19:50;;;;;;;5.70;2.60;;;;;;;3.40;100.00;98430.52;103855;1265;60969;-63
2023/02/19 00:22:18;;;;;;;7.00;2.60;;;;;;;3.50;100.00;98427.27;103636;1266;73593;-61
2023/02/19 00:24:47;;;;;;;7.90;3.40;;;;;;;3.54;100.00;98427.48;103721;1273;70532;-61
2023/02/19 00:27:16;;;;;;;5.80;3.30;;;;;;;3.56;100.00;98425.34;103733;1281;73366;-61
2023/02/19 00:29:45;;;;;;;4.90;2.70;;;;;;;3.57;100.00;98427.20;104009;1268;60553;-61
2023/02/19 00:32:15;;;;;;;4.40;2.70;;;;;;;3.58;100.00;98424.58;103826;1269;60578;-61
2023/02/19 00:34:44;;;;;;;6.10;3.20;;;;;;;3.61;100.00;98423.08;103917;1267;72862;-62
2023/02/19 00:37:13;;;;;;;5.20;2.60;;;;;;;3.60;100.00;98424.15;104436;1266;71078;-62
2023/02/19 00:39:41;;;;;;;3.70;2.60;;;;;;;3.65;100.00;98424.15;104554;1251;73938;-62
2023/02/19 00:42:10;;;;;;;5.70;2.60;;;;;;;3.75;100.00;98429.37;104301;1254;60962;-62
2023/02/19 00:44:38;;;;;;;7.50;3.40;;;;;;;3.74;100.00;98430.77;104368;1255;61140;-62
2023/02/19 00:47:07;;;;;;;8.50;3.00;;;;;;;3.71;100.00;98428.09;104474;1256;73498;-62
2023/02/19 00:49:38;;;;;;;4.10;2.80;;;;;;;3.71;100.00;98431.75;104334;1256;71071;-62
2023/02/19 00:52:06;;;;;;;4.90;3.00;;;;;;;3.72;100.00;98434.15;104191;1275;73076;-61
2023/02/19 00:54:35;;;;;;;5.90;3.50;;;;;;;3.67;100.00;98434.48;104343;1252;60888;-63
2023/02/19 00:57:05;;;;;;;4.70;2.60;;;;;;;3.67;100.00;98440.38;104337;1257;60719;-62
2023/02/19 00:59:35;;;;;;;4.70;2.70;;;;;;;3.65;100.00;98438.70;104271;1256;74082;-63
2023/02/19 01:02:04;;;;;;;3.80;2.30;;;;;;;3.71;100.00;98444.58;104345;1264;71161;-62
2023/02/19 01:04:32;;;;;;;5.10;2.60;;;;;;;3.80;100.00;98443.02;104463;1253;74158;-63
2023/02/19 01:07:02;;;;;;;5.40;2.90;;;;;;;3.83;100.00;98446.58;104326;1270;60860;-62
2023/02/19 01:09:31;;;;;;;5.70;2.60;;;;;;;3.82;100.00;98445.06;104707;1256;60594;-62
2023/02/19 01:11:59;;;;;;;5.10;2.40;;;;;;;3.82;100.00;98444.88;104355;1256;73898;-62
2023/02/19 01:14:28;;;;;;;4.70;2.50;;;;;;;3.78;100.00;98443.10;104235;1272;69713;-62
2023/02/19 01:16:56;;;;;;;4.60;2.20;;;;;;;3.77;100.00;98440.58;104257;1257;74135;-62
2023/02/19 01:19:25;;;;;;;7.50;2.40;;;;;;;3.75;100.00;98442.02;104322;1272;60405;-63
2023/02/19 01:21:54;;;;;;;6.10;2.80;;;;;;;3.74;100.00;98446.03;104232;1256;61334;-64
2023/02/19 01:24:22;;;;;;;4.90;2.60;;;;;;;3.77;100.00;98450.95;104414;1263;73474;-63
2023/02/19 01:26:51;;;;;;;5.90;2.70;;;;;;;3.81;100.00;98451.15;104249;1272;70206;-61
2023/02/19 01:29:19;;;;;;;5.90;2.80;;;;;;;3.82;100.00;98449.73;104446;1257;73293;-62
2023/02/19 01:31:48;;;;;;;4.20;2.30;;;;;;;3.81;100.00;98451.33;104358;1264;60461;-63
2023/02/19 01:34:16;;;;;;;6.10;2.80;;;;;;;3.81;100.00;98444.08;104291;1267;60848;-62
2023/02/19 01:36:45;;;;;;;4.00;2.60;;;;;;;3.80;100.00;98449.97;104284;1256;74057;-62
2023/02/19 01:39:13;;;;;;;3.90;2.20;;;;;;;3.79;100.00;98452.48;104262;1272;70871;-62
2023/02/19 01:41:42;;;;;;;5.80;2.90;;;;;;;3.79;100.00;98459.02;104189;1265;73326;-62
2023/02/19 01:44:11;;;;;;;4.90;2.70;;;;;;;3.72;100.00;98462.75;104299;1253;61605;-63
2023/02/19 01:46:40;;;;;;;6.60;2.70;;;;;;;3.74;100.00;98459.19;104392;1257;61410;-62
2023/02/19 01:49:28;;;;;;;6.50;2.30;;;;;;;3.76;100.00;98463.11;104486;1253;74668;-63
2023/02/19 01:52:03;;;;;;;4.80;2.20;;;;;;;3.76;100.00;98466.95;104259;1257;71048;-64
2023/02/19 01:54:34;;;;;;;8.10;2.40;;;;;;;3.75;100.00;98462.13;104341;1272;73809;-63
2023/02/19 01:57:05;;;;;;;5.50;2.50;;;;;;;3.73;100.00;98462.37;104328;1259;60456;-63
2023/02/19 01:59:34;;;;;;;4.80;2.50;;;;;;;3.73;100.00;98467.38;104197;1259;61158;-63
2023/02/19 02:02:03;;;;;;;4.80;2.20;;;;;;;3.72;100.00;98471.23;104387;1258;74968;-62
2023/02/19 02:04:32;;;;;;;4.80;2.00;;;;;;;3.70;100.00;98478.41;104324;1256;71308;-63
2023/02/19 02:10:18;;;;;;;5.00;2.20;;;;;;;3.69;100.00;98475.66;104413;1254;73201;-62
2023/02/19 02:12:38;;;;;;;6.30;2.60;;;;;;;3.82;100.00;98475.23;104348;1265;61388;-64
2023/02/19 02:15:07;;;;;;;6.60;2.70;;;;;;;3.79;100.00;98479.49;106887;1253;74623;-63
2023/02/19 02:17:56;;;;;;;6.30;2.70;;;;;;;-128.00;-1.00;-1.00;104985;1253;1012799;-62
2023/02/19 02:20:24;;;;;;;5.40;2.40;;;;;;;-128.00;-1.00;-1.00;101989;1252;1012397;-61
2023/02/19 02:23:10;;;;;;;3.40;2.10;;;;;;;-128.00;-1.00;-1.00;101835;1251;1011293;-62
2023/02/19 02:25:42;;;;;;;5.10;2.40;;;;;;;-128.00;-1.00;-1.00;102138;1257;1011291;-62
2023/02/19 02:28:19;;;;;;;5.00;2.50;;;;;;;-128.00;-1.00;-1.00;102136;1251;1013923;-62
2023/02/19 02:30:50;;;;;;;8.00;2.30;;;;;;;-128.00;-1.00;-1.00;102039;1256;1015638;-63
2023/02/19 02:33:36;;;;;;;5.60;2.60;;;;;;;-128.00;-1.00;-1.00;102006;1252;1015374;-63
2023/02/19 02:36:09;;;;;;;6.90;2.70;;;;;;;-128.00;-1.00;-1.00;101766;1251;1010169;-64
2023/02/19 02:38:40;;;;;;;5.90;2.40;;;;;;;-128.00;-1.00;-1.00;101819;1254;1011916;-63
2023/02/19 02:41:09;;;;;;;5.50;2.30;;;;;;;-128.00;-1.00;-1.00;101742;1257;1012784;-63
2023/02/19 02:43:38;;;;;;;5.00;2.20;;;;;;;-128.00;-1.00;-1.00;102032;1254;1013023;-64
2023/02/19 02:46:10;;;;;;;4.20;2.20;;;;;;;-128.00;-1.00;-1.00;105771;1252;1012698;-64
2023/02/19 02:48:52;;;;;;;5.40;2.10;;;;;;;-128.00;-1.00;-1.00;105771;1251;1010103;-63
2023/02/19 02:51:30;;;;;;;4.30;2.10;;;;;;;-128.00;-1.00;-1.00;105756;1252;1010620;-63
2023/02/19 02:56:59;;;;;;;6.00;2.10;;;;;;;-128.00;-1.00;-1.00;101839;1251;1012634;-63
2023/02/19 02:59:31;;;;;;;5.20;2.30;;;;;;;-128.00;-1.00;-1.00;101840;1254;1013246;-66
2023/02/19 03:02:13;;;;;;;6.40;2.10;;;;;;;-128.00;-1.00;-1.00;101884;1256;1009824;-63
2023/02/19 03:07:57;;;;;;;6.00;2.70;;;;;;;-128.00;-1.00;-1.00;101974;1257;1013878;-64
2023/02/19 03:10:39;;;;;;;5.00;2.50;;;;;;;-128.00;-1.00;-1.00;101841;1254;1012929;-63
2023/02/19 03:19:17;;;;;;;4.50;2.50;;;;;;;-128.00;-1.00;-1.00;101783;1251;1011671;-64
2023/02/19 03:22:08;;;;;;;5.10;2.20;;;;;;;-128.00;-1.00;-1.00;101763;1254;1013383;-62
2023/02/19 03:27:33;;;;;;;4.50;2.30;;;;;;;-128.00;-1.00;-1.00;101841;1251;1013671;-67
2023/02/19 03:30:23;;;;;;;5.30;2.60;;;;;;;-128.00;-1.00;-1.00;102138;1251;1009781;-70
2023/02/19 03:33:07;;;;;;;7.20;2.70;;;;;;;-128.00;-1.00;-1.00;101767;1256;1013437;-69
2023/02/19 03:35:46;;;;;;;7.20;2.20;;;;;;;-128.00;-1.00;-1.00;102364;1251;1015608;-70
2023/02/19 03:38:54;;;;;;;7.70;2.60;;;;;;;-128.00;-1.00;-1.00;101921;1257;1012848;-70
2023/02/19 03:41:34;;;;;;;4.70;2.10;;;;;;;-128.00;-1.00;-1.00;101895;1253;1013086;-70
2023/02/19 03:44:06;;;;;;;3.70;2.10;;;;;;;-128.00;-1.00;-1.00;101836;1253;1010533;-70
2023/02/19 03:46:44;;;;;;;7.90;3.10;;;;;;;-128.00;-1.00;-1.00;101825;1251;1011198;-70
2023/02/19 03:49:31;;;;;;;;;;;;;;;-128.00;-1.00;-1.00;101831;1257;1013413;-70
2023/02/19 03:52:17;;;;;;;4.00;2.40;;;;;;;-128.00;-1.00;-1.00;101760;1256;1013128;-69
2023/02/19 03:55:02;;;;;;;3.20;2.10;;;;;;;-128.00;-1.00;-1.00;101850;1256;1013139;-69
2023/02/19 03:57:50;;;;;;;2.80;1.80;;;;;;;-128.00;-1.00;-1.00;101819;1251;1009746;-69
2023/02/19 04:00:39;;;;;;;4.90;2.40;;;;;;;-128.00;-1.00;-1.00;101812;1251;1010361;-69
2023/02/19 04:03:11;;;;;;;5.00;2.40;;;;;;;-128.00;-1.00;-1.00;101696;1256;1013267;-70
2023/02/19 04:05:42;;;;;;;6.50;2.50;;;;;;;-128.00;-1.00;-1.00;101789;1259;1012996;-69
2023/02/19 04:08:21;;;;;;;4.60;2.40;;;;;;;-128.00;-1.00;-1.00;101888;1253;1014133;-70
2023/02/19 04:10:54;;;;;;;5.70;2.40;;;;;;;-128.00;-1.00;-1.00;101771;1251;1010868;-68
2023/02/19 04:13:30;;;;;;;3.50;2.10;;;;;;;-128.00;-1.00;-1.00;101854;1256;1014116;-69
2023/02/19 04:16:02;;;;;;;6.10;2.40;;;;;;;-128.00;-1.00;-1.00;101723;1253;1013556;-69
2023/02/19 04:18:35;;;;;;;3.70;2.20;;;;;;;-128.00;-1.00;-1.00;105149;1251;1016138;-70
2023/02/19 04:21:04;;;;;;;5.80;2.70;;;;;;;-128.00;-1.00;-1.00;104707;1253;1013158;-68
2023/02/19 04:23:36;;;;;;;3.30;2.30;;;;;;;-128.00;-1.00;-1.00;102402;1254;1011114;-69
2023/02/19 04:26:06;;;;;;;5.20;2.50;;;;;;;-128.00;-1.00;-1.00;102055;1254;1010829;-69
2023/02/19 04:28:35;;;;;;;5.70;2.20;;;;;;;-128.00;-1.00;-1.00;102035;1251;1013076;-69
2023/02/19 04:31:03;;;;;;;5.70;2.80;;;;;;;-128.00;-1.00;-1.00;102187;1251;1013954;-68
2023/02/19 04:33:32;;;;;;;2.80;2.20;;;;;;;-128.00;-1.00;-1.00;101827;1254;1013683;-69
2023/02/19 04:36:00;;;;;;;4.60;2.70;;;;;;;-128.00;-1.00;-1.00;101786;1251;1010850;-68
2023/02/19 04:38:29;;;;;;;5.10;2.10;;;;;;;-128.00;-1.00;-1.00;101964;1253;1010902;-69
2023/02/19 04:40:59;;;;;;;4.80;1.90;;;;;;;-128.00;-1.00;-1.00;101787;1251;1015758;-62
2023/02/19 04:43:28;;;;;;;7.50;2.60;;;;;;;-128.00;-1.00;-1.00;101761;1256;1013926;-62
2023/02/19 04:46:00;;;;;;;9.00;3.00;;;;;;;-128.00;-1.00;-1.00;102667;1253;1012620;-62
2023/02/19 04:48:30;;;;;;;7.40;2.60;;;;;;;-128.00;-1.00;-1.00;105856;1253;1009555;-65
2023/02/19 04:50:58;;;;;;;7.70;2.50;;;;;;;-128.00;-1.00;-1.00;105888;1251;1011840;-64
2023/02/19 04:53:26;;;;;;;4.10;2.10;;;;;;;-128.00;-1.00;-1.00;105497;1254;1013101;-63
2023/02/19 04:55:55;;;;;;;4.50;2.40;;;;;;;-128.00;-1.00;-1.00;105781;1251;1014368;-64
2023/02/19 04:58:24;;;;;;;3.50;2.40;;;;;;;-128.00;-1.00;-1.00;105846;1254;1013587;-64
2023/02/19 05:00:52;;;;;;;5.20;2.40;;;;;;;-128.00;-1.00;-1.00;102272;1254;1010993;-61
2023/02/19 05:03:21;;;;;;;6.60;2.70;;;;;;;-128.00;-1.00;-1.00;101689;1257;1010823;-68
2023/02/19 05:05:49;;;;;;;4.40;2.90;;;;;;;-128.00;-1.00;-1.00;101727;1257;1012621;-68
2023/02/19 05:08:19;;;;;;;5.10;2.40;;;;;;;-128.00;-1.00;-1.00;101809;1258;1013005;-68
2023/02/19 05:10:47;;;;;;;4.70;2.80;;;;;;;-128.00;-1.00;-1.00;101870;1251;1013066;-67
2023/02/19 05:13:19;;;;;;;6.10;2.40;;;;;;;-128.00;-1.00;-1.00;101735;1253;1011072;-69
2023/02/19 05:15:58;;;;;;;4.90;2.60;;;;;;;-128.00;-1.00;-1.00;101681;1257;1011655;-68
2023/02/19 05:18:26;;;;;;;5.40;2.30;;;;;;;-128.00;-1.00;-1.00;101774;1257;1013318;-68
2023/02/19 05:20:56;;;;;;;2.90;2.20;;;;;;;-128.00;-1.00;-1.00;101959;1251;1015763;-69
2023/02/19 05:23:25;;;;;;;5.20;2.40;;;;;;;-128.00;-1.00;-1.00;101773;1254;1012555;-68
2023/02/19 05:25:53;;;;;;;3.40;2.30;;;;;;;-128.00;-1.00;-1.00;101804;1251;1009931;-69
2023/02/19 05:28:27;;;;;;;4.30;2.60;;;;;;;-128.00;-1.00;-1.00;101796;1251;1013492;-68
2023/02/19 05:31:03;;;;;;;3.80;2.50;;;;;;;-128.00;-1.00;-1.00;101765;1257;1013364;-66
2023/02/19 05:33:31;;;;;;;4.00;2.30;;;;;;;-128.00;-1.00;-1.00;101838;1253;1012126;-68
2023/02/19 05:36:07;;;;;;;5.00;2.90;;;;;;;-128.00;-1.00;-1.00;101810;1256;1016135;-67
2023/02/19 05:38:38;;;;;;;4.80;2.40;;;;;;;-128.00;-1.00;-1.00;101822;1257;1012728;-68
2023/02/19 05:41:08;;;;;;;4.60;2.60;;;;;;;-128.00;-1.00;-1.00;102018;1253;1011620;-68
2023/02/19 05:43:38;;;;;;;5.20;2.50;;;;;;;-128.00;-1.00;-1.00;101961;1254;1012975;-68
2023/02/19 05:46:06;;;;;;;4.90;3.30;;;;;;;-128.00;-1.00;-1.00;101894;1251;1012467;-70
2023/02/19 05:48:35;;;;;;;5.10;2.70;;;;;;;-128.00;-1.00;-1.00;102065;1253;1013177;-69
2023/02/19 05:51:09;;;;;;;6.30;2.70;;;;;;;-128.00;-1.00;-1.00;102019;1254;1013275;-68
2023/02/19 05:53:39;;;;;;;4.50;2.80;;;;;;;-128.00;-1.00;-1.00;102060;1256;1013682;-69
2023/02/19 05:56:28;;;;;;;4.40;2.80;;;;;;;-128.00;-1.00;-1.00;101866;1252;1013342;-66
2023/02/19 05:58:56;;;;;;;5.20;3.10;;;;;;;-128.00;-1.00;-1.00;101991;1251;1015746;-67
2023/02/19 06:01:26;;;;;;;4.40;2.90;;;;;;;-128.00;-1.00;-1.00;101893;1252;1013902;-64
2023/02/19 06:03:56;;;;;;;6.10;2.90;;;;;;;-128.00;-1.00;-1.00;102030;1255;1010374;-62
2023/02/19 06:06:25;;;;;;;5.60;3.20;;;;;;;-128.00;-1.00;-1.00;102022;1252;1011810;-63
2023/02/19 06:08:53;;;;;;;4.40;2.50;;;;;;;-128.00;-1.00;-1.00;102138;1251;1015535;-63
2023/02/19 06:11:22;;;;;;;5.70;3.10;;;;;;;-128.00;-1.00;-1.00;101925;1254;1015805;-64
2023/02/19 06:13:50;;;;;;;4.20;2.60;;;;;;;-128.00;-1.00;-1.00;101758;1256;1012539;-64
2023/02/19 06:16:20;;;;;;;5.10;3.30;;;;;;;-128.00;-1.00;-1.00;101998;1253;1010646;-63
2023/02/19 06:18:54;;;;;;;3.30;2.50;;;;;;;-128.00;-1.00;-1.00;101892;1251;1010834;-63
2023/02/19 06:21:23;;;;;;;4.40;2.80;;;;;;;-128.00;-1.00;-1.00;101735;1253;1012816;-63
2023/02/19 06:23:51;;;;;;;5.10;3.40;;;;;;;-128.00;-1.00;-1.00;101885;1251;1014770;-66
2023/02/19 06:26:21;;;;;;;6.80;3.30;;;;;;;-128.00;-1.00;-1.00;101833;1257;1015210;-66
2023/02/19 06:28:50;;;;;;;6.30;3.40;;;;;;;-128.00;-1.00;-1.00;101786;1251;1011076;-65
2023/02/19 06:31:20;;;;;;;6.10;3.00;;;;;;;-128.00;-1.00;-1.00;101773;1256;1010833;-66
2023/02/19 06:33:49;;;;;;;7.60;3.40;;;;;;;-128.00;-1.00;-1.00;101852;1252;1013519;-65
2023/02/19 06:36:19;;;;;;;5.30;3.40;;;;;;;-128.00;-1.00;-1.00;101792;1256;1015808;-65
2023/02/19 06:38:48;;;;;;;6.30;3.10;;;;;;;-128.00;-1.00;-1.00;101852;1254;1013543;-67
2023/02/19 06:41:17;;;;;;;4.00;2.90;;;;;;;-128.00;-1.00;-1.00;101883;1251;1009557;-67
2023/02/19 06:43:46;;;;;;;3.90;2.50;;;;;;;-128.00;-1.00;-1.00;101926;1253;1012312;-69
2023/02/19 06:46:14;;;;;;;6.40;3.50;;;;;;;-128.00;-1.00;-1.00;101941;1251;1013160;-71
2023/02/19 06:48:43;;;;;;;4.90;3.10;;;;;;;-128.00;-1.00;-1.00;101949;1255;1012940;-64
2023/02/19 06:51:13;;;;;;;4.80;2.60;;;;;;;-128.00;-1.00;-1.00;101761;1256;1015225;-63
2023/02/19 06:53:42;;;;;;;4.00;2.10;;;;;;;-128.00;-1.00;-1.00;101817;1253;1010257;-64
2023/02/19 06:56:27;;;;;;;5.50;3.30;;;;;;;-128.00;-1.00;-1.00;101792;1251;1010845;-65
2023/02/19 06:59:00;;;;;;;4.50;2.60;;;;;;;-128.00;-1.00;-1.00;101929;1251;1016338;-70
2023/02/19 07:01:30;;;;;;;6.10;2.60;;;;;;;-128.00;-1.00;-1.00;101912;1251;1013005;-63
2023/02/19 07:03:59;;;;;;;6.00;3.10;;;;;;;-128.00;-1.00;-1.00;101845;1251;1013748;-64
2023/02/19 07:06:28;;;;;;;4.80;2.70;;;;;;;-128.00;-1.00;-1.00;101793;1253;1012130;-70
2023/02/19 07:08:59;;;;;;;3.50;2.40;;;;;;;-128.00;-1.00;-1.00;101731;1251;1013687;-70
2023/02/19 07:11:30;;;;;;;3.50;2.40;;;;;;;-128.00;-1.00;-1.00;101842;1253;1013797;-71
2023/02/19 07:13:59;;;;;;;8.20;2.70;;;;;;;-128.00;-1.00;-1.00;101765;1251;1013081;-70
2023/02/19 07:16:28;;;;;;;4.90;2.70;;;;;;;-128.00;-1.00;-1.00;101702;1256;1016186;-66
2023/02/19 07:18:57;;;;;;;8.80;2.90;;;;;;;-128.00;-1.00;-1.00;102189;1254;1009934;-65
2023/02/19 07:21:30;;;;;;;4.80;2.90;;;;;;;-128.00;-1.00;-1.00;101866;1251;1011545;-66
2023/02/19 07:23:59;;;;;;;3.70;2.30;;;;;;;-128.00;-1.00;-1.00;101717;1253;1013729;-67
2023/02/19 07:26:28;;;;;;;5.40;2.60;;;;;;;-128.00;-1.00;-1.00;101904;1251;1012571;-70
2023/02/19 07:28:57;;;;;;;4.80;2.50;;;;;;;-128.00;-1.00;-1.00;101742;1251;1012649;-69
2023/02/19 07:31:25;;;;;;;7.80;2.70;;;;;;;-128.00;-1.00;-1.00;101823;1256;1013448;-68
2023/02/19 07:33:54;;;;;;;3.80;2.30;;;;;;;-128.00;-1.00;-1.00;101750;1256;1011537;-68
2023/02/19 07:36:23;;;;;;;2.70;2.20;;;;;;;-128.00;-1.00;-1.00;101709;1251;1015465;-68
2023/02/19 07:38:56;;;;;;;5.00;2.40;;;;;;;-128.00;-1.00;-1.00;101864;1253;1012883;-68
2023/02/19 07:41:25;;;;;;;4.90;2.60;;;;;;;-128.00;-1.00;-1.00;101845;1251;1013230;-70
2023/02/19 07:43:57;;;;;;;4.30;2.30;;;;;;;-128.00;-1.00;-1.00;101893;1256;1009935;-65
2023/02/19 07:46:26;;;;;;;4.80;2.50;;;;;;;-128.00;-1.00;-1.00;101736;1256;1011199;-64
2023/02/19 07:48:58;;;;;;;3.70;2.10;;;;;;;-128.00;-1.00;-1.00;105829;1253;1013135;-63
2023/02/19 07:51:28;;;;;;;3.10;1.90;;;;;;;-128.00;-1.00;-1.00;104370;1252;1014043;-64
2023/02/19 07:54:00;;;;;;;5.50;2.30;;;;;;;-128.00;-1.00;-1.00;102427;1252;1015452;-68
2023/02/19 07:56:29;;;;;;;3.90;1.90;;;;;;;-128.00;-1.00;-1.00;101814;1256;1010604;-69
2023/02/19 07:58:59;;;;;;;4.80;2.00;;;;;;;-128.00;-1.00;-1.00;102233;1254;1010813;-67
2023/02/19 08:04:16;;;;;;;3.10;1.90;;;;;;;-128.00;-1.00;-1.00;101788;1253;1015514;-67
2023/02/19 08:06:45;;;;;;;6.00;2.30;;;;;;;-128.00;-1.00;-1.00;102005;1252;1012835;-64
2023/02/19 08:09:13;;;;;;;5.00;2.20;;;;;;;-128.00;-1.00;-1.00;102066;1255;1010286;-63
2023/02/19 08:14:31;;;;;;;5.10;2.30;;;;;;;-128.00;-1.00;-1.00;101800;1251;1016413;-63
2023/02/19 08:16:59;;;;;;;6.60;2.80;;;;;;;-128.00;-1.00;-1.00;101736;1254;1015771;-64
2023/02/19 08:19:28;;;;;;;6.80;2.50;;;;;;;-128.00;-1.00;-1.00;101801;1256;1015095;-63
2023/02/19 08:21:57;;;;;;;5.70;2.00;;;;;;;-128.00;-1.00;-1.00;102047;1253;1010675;-64
2023/02/19 08:24:27;;;;;;;5.10;2.50;;;;;;;-128.00;-1.00;-1.00;101916;1253;1011114;-63
2023/02/19 08:26:56;;;;;;;5.20;2.40;;;;;;;-128.00;-1.00;-1.00;101960;1253;1012978;-64
2023/02/19 08:29:24;;;;;;;5.20;2.50;;;;;;;-128.00;-1.00;-1.00;102276;1254;1013512;-70
2023/02/19 08:31:53;;;;;;;4.20;2.10;;;;;;;-128.00;-1.00;-1.00;101832;1257;1015578;-69
2023/02/19 08:34:21;;;;;;;7.10;2.30;;;;;;;-128.00;-1.00;-1.00;101766;1253;1010879;-68
2023/02/19 08:36:51;;;;;;;4.30;2.10;;;;;;;-128.00;-1.00;-1.00;101941;1253;1010608;-69
2023/02/19 08:39:19;;;;;;;3.60;2.20;;;;;;;-128.00;-1.00;-1.00;102103;1252;1013288;-67
2023/02/19 08:41:50;;;;;;;3.50;1.90;;;;;;;-128.00;-1.00;-1.00;102066;1254;1013471;-71
2023/02/19 08:44:18;;;;;;;3.40;1.70;;;;;;;-128.00;-1.00;-1.00;101903;1253;1012471;-67
2023/02/19 08:46:51;;;;;;;5.30;2.10;;;;;;;-128.00;-1.00;-1.00;102097;1253;1010915;-69
2023/02/19 08:49:25;;;;;;;4.80;2.20;;;;;;;-128.00;-1.00;-1.00;101773;1254;1014074;-69
2023/02/19 08:51:54;;;;;;;5.70;2.30;;;;;;;-128.00;-1.00;-1.00;102054;1257;1012702;-69
2023/02/19 08:54:22;;;;;;;4.50;2.10;;;;;;;-128.00;-1.00;-1.00;101862;1253;1013984;-70
2023/02/19 08:56:51;;;;;;;2.60;1.70;;;;;;;-128.00;-1.00;-1.00;101793;1256;1015046;-71
2023/02/19 08:59:19;;;;;;;3.70;1.80;;;;;;;-128.00;-1.00;-1.00;101847;1257;1010519;-71
2023/02/19 09:01:48;;;;;;;3.70;2.00;;;;;;;-128.00;-1.00;-1.00;102101;1256;1011085;-73
2023/02/19 09:04:16;;;;;;;3.80;2.60;;;;;;;-128.00;-1.00;-1.00;101819;1253;1012414;-69
2023/02/19 09:06:45;;;;;;;3.50;1.60;;;;;;;-128.00;-1.00;-1.00;101726;1253;1012333;-69
2023/02/19 09:09:13;;;;;;;7.90;1.60;;;;;;;-128.00;-1.00;-1.00;101912;1254;1012846;-71
2023/02/19 09:11:42;;;;;;;2.80;1.50;;;;;;;-128.00;-1.00;-1.00;101997;1252;1011281;-70
2023/02/19 09:14:10;;;;;;;6.80;2.30;;;;;;;-128.00;-1.00;-1.00;102017;1253;1011211;-70
2023/02/19 09:16:39;;;;;;;3.30;1.90;;;;;;;-128.00;-1.00;-1.00;101907;1253;1015591;-70
2023/02/19 09:19:07;;;;;;;5.60;2.20;;;;;;;-128.00;-1.00;-1.00;101897;1254;1013236;-68
2023/02/19 09:21:35;;;;;;;4.00;2.00;;;;;;;-128.00;-1.00;-1.00;101864;1253;1013744;-69
2023/02/19 09:24:05;;;;;;;4.50;1.80;;;;;;;-128.00;-1.00;-1.00;101885;1258;1013108;-69
2023/02/19 09:26:33;;;;;;;7.70;2.00;;;;;;;-128.00;-1.00;-1.00;101828;1253;1011047;-70
2023/02/19 09:29:03;;;;;;;4.00;1.70;;;;;;;-128.00;-1.00;-1.00;101974;1254;1013281;-70
2023/02/19 09:31:33;;;;;;;4.50;1.70;;;;;;;-128.00;-1.00;-1.00;102194;1257;1013303;-69
2023/02/19 09:34:02;;;;;;;5.10;2.00;;;;;;;-128.00;-1.00;-1.00;101880;1257;1015514;-70
2023/02/19 09:36:32;;;;;;;5.20;2.00;;;;;;;-128.00;-1.00;-1.00;101836;1254;1012914;-68
2023/02/19 09:39:00;;;;;;;5.90;1.70;;;;;;;-128.00;-1.00;-1.00;101850;1253;1011165;-70
2023/02/19 09:41:51;;;;;;;5.00;2.00;;;;;;;-128.00;-1.00;-1.00;101892;1258;1012627;-68
2023/02/19 09:44:26;;;;;;;2.60;1.40;;;;;;;-128.00;-1.00;-1.00;101821;1257;1013369;-70
2023/02/19 09:46:54;;;;;;;3.30;1.70;;;;;;;-128.00;-1.00;-1.00;102004;1253;1013460;-69
2023/02/19 09:49:34;;;;;;;4.50;1.90;;;;;;;-128.00;-1.00;-1.00;102143;1253;1010171;-70
2023/02/19 09:52:06;;;;;;;6.10;1.80;;;;;;;-128.00;-1.00;-1.00;102061;1252;1013764;-68
2023/02/19 09:54:35;;;;;;;3.80;1.80;;;;;;;-128.00;-1.00;-1.00;101838;1254;1016113;-68
2023/02/19 09:57:04;;;;;;;4.50;2.20;;;;;;;-128.00;-1.00;-1.00;101919;1254;1012987;-70
2023/02/19 10:00:00;;;;;;;2.80;1.70;;;;;;;-128.00;-1.00;-1.00;101880;1253;1013376;-69
2023/02/19 10:02:32;;;;;;;3.70;1.80;;;;;;;-128.00;-1.00;-1.00;101947;1253;1009862;-68
2023/02/19 10:05:02;;;;;;;6.30;2.10;;;;;;;-128.00;-1.00;-1.00;101908;1254;1011565;-66
2023/02/19 10:07:37;;;;;;;2.70;1.80;;;;;;;-128.00;-1.00;-1.00;101781;1253;1013388;-70
2023/02/19 10:10:12;;;;;;;8.30;2.30;;;;;;;-128.00;-1.00;-1.00;101943;1253;1012877;-71
2023/02/19 10:12:49;;;;;;;2.80;1.60;;;;;;;-128.00;-1.00;-1.00;101875;1253;1013403;-66
2023/02/19 10:15:38;;;;;;;2.40;1.70;;;;;;;-128.00;-1.00;-1.00;101829;1253;1011162;-69
2023/02/19 10:18:06;;;;;;;2.60;1.40;;;;;;;-128.00;-1.00;-1.00;101866;1254;1013983;-69
2023/02/19 10:20:38;;;;;;;3.20;1.30;;;;;;;-128.00;-1.00;-1.00;101836;1257;1013455;-68
2023/02/19 10:23:06;;;;;;;3.50;1.50;;;;;;;-128.00;-1.00;-1.00;101846;1253;1015295;-64
2023/02/19 10:25:35;;;;;;;3.30;1.50;;;;;;;-128.00;-1.00;-1.00;101825;1256;1012726;-69
2023/02/19 10:28:05;;;;;;;4.20;1.70;;;;;;;-128.00;-1.00;-1.00;101844;1257;1013227;-67
2023/02/19 10:30:34;;;;;;;5.30;1.80;;;;;;;-128.00;-1.00;-1.00;101891;1257;1011284;-68
2023/02/19 10:33:07;;;;;;;3.60;1.70;;;;;;;-128.00;-1.00;-1.00;102118;1254;1013002;-68
2023/02/19 10:35:38;;;;;;;4.10;1.60;;;;;;;-128.00;-1.00;-1.00;101838;1254;1013558;-67
2023/02/19 10:38:07;;;;;;;2.60;1.40;;;;;;;-128.00;-1.00;-1.00;101877;1258;1012947;-66
2023/02/19 10:40:36;;;;;;;3.40;1.90;;;;;;;-128.00;-1.00;-1.00;102046;1257;1009604;-68
2023/02/19 10:43:04;;;;;;;4.90;1.70;;;;;;;-128.00;-1.00;-1.00;101997;1254;1011194;-68
2023/02/19 10:45:46;;;;;;;3.80;1.90;;;;;;;-128.00;-1.00;-1.00;101771;1253;1012336;-65
2023/02/19 10:48:29;;;;;;;2.30;1.40;;;;;;;-128.00;-1.00;-1.00;101969;1257;1015884;-67
2023/02/19 10:51:03;;;;;;;1.90;1.60;;;;;;;-128.00;-1.00;-1.00;105701;1253;1012912;-68
2023/02/19 10:53:45;;;;;;;3.80;1.70;;;;;;;-128.00;-1.00;-1.00;103618;1256;1010631;-68
2023/02/19 10:56:15;;;;;;;3.90;1.60;;;;;;;-128.00;-1.00;-1.00;102004;1253;1013744;-66
2023/02/19 10:58:46;;;;;;;2.70;1.30;;;;;;;-128.00;-1.00;-1.00;101963;1253;1014986;-66
2023/02/19 11:01:18;;;;;;;5.10;1.90;;;;;;;-128.00;-1.00;-1.00;101975;1253;1013189;-66
2023/02/19 11:03:51;;;;;;;3.80;1.90;;;;;;;-128.00;-1.00;-1.00;101906;1253;1013503;-67
2023/02/19 11:06:24;;;;;;;2.40;1.30;;;;;;;-128.00;-1.00;-1.00;101964;1254;1010315;-65
2023/02/19 11:08:56;;;;;;;2.00;1.20;;;;;;;-128.00;-1.00;-1.00;101815;1254;1011671;-66
2023/02/19 11:11:32;;;;;;;3.20;1.70;;;;;;;-128.00;-1.00;-1.00;101813;1253;1015422;-65
2023/02/19 11:14:14;;;;;;;1.70;1.30;;;;;;;-128.00;-1.00;-1.00;101830;1253;1012772;-63
2023/02/19 11:16:43;;;;;;;4.40;1.40;;;;;;;-128.00;-1.00;-1.00;102145;1253;1013616;-64
2023/02/19 11:19:26;;;;;;;4.20;1.50;;;;;;;-128.00;-1.00;-1.00;101947;1256;1013436;-64
2023/02/19 11:21:54;;;;;;;3.30;1.40;;;;;;;-128.00;-1.00;-1.00;102083;1253;1011412;-63
2023/02/19 11:24:35;;;;;;;2.50;1.20;;;;;;;-128.00;-1.00;-1.00;102066;1252;1013185;-65
2023/02/19 11:27:05;;;;;;;7.20;1.50;;;;;;;-128.00;-1.00;-1.00;101812;1253;1013771;-63
2023/02/19 11:29:34;;;;;;;2.70;1.60;;;;;;;-128.00;-1.00;-1.00;102408;1253;1013341;-65
2023/02/19 11:32:19;;;;;;;1.90;1.50;;;;;;;-128.00;-1.00;-1.00;102003;1252;1009987;-67
2023/02/19 11:34:48;;;;;;;3.60;1.60;;;;;;;-128.00;-1.00;-1.00;101917;1255;1011438;-71
2023/02/19 11:37:19;;;;;;;6.60;2.00;;;;;;;-128.00;-1.00;-1.00;101982;1254;1015695;-70
2023/02/19 11:39:49;;;;;;;2.90;1.50;;;;;;;-128.00;-1.00;-1.00;102057;1253;1014270;-71
2023/02/19 11:42:44;;;;;;;4.50;1.30;;;;;;;-128.00;-1.00;-1.00;101962;1253;1012890;-70
2023/02/19 11:45:28;;;;;;;3.50;1.30;;;;;;;-128.00;-1.00;-1.00;102067;1252;1010888;-73
2023/02/19 11:48:22;;;;;;;7.20;1.80;;;;;;;-128.00;-1.00;-1.00;101900;1254;1013779;-71
2023/02/19 11:50:52;;;;;;;3.10;2.00;;;;;;;-128.00;-1.00;-1.00;101852;1254;1016591;-71
2023/02/19 11:53:31;;;;;;;3.70;1.50;;;;;;;-128.00;-1.00;-1.00;101940;1253;1012648;-70
2023/02/19 11:56:22;;;;;;;2.10;1.20;;;;;;;-128.00;-1.00;-1.00;101925;1253;1013351;-71
2023/02/19 11:59:24;;;;;;;3.90;1.00;;;;;;;-128.00;-1.00;-1.00;102068;1257;1010275;-71
2023/02/19 12:02:05;;;;;;;3.20;1.20;;;;;;;-128.00;-1.00;-1.00;101774;1253;1011655;-71
2023/02/19 12:04:35;;;;;;;3.30;1.40;;;;;;;-128.00;-1.00;-1.00;101892;1254;1013241;-72
2023/02/19 12:07:24;;;;;;;3.40;1.80;;;;;;;-128.00;-1.00;-1.00;101958;1253;1012587;-74
2023/02/19 12:10:11;;;;;;;1.50;1.20;;;;;;;-128.00;-1.00;-1.00;101852;1253;1013274;-70
2023/02/19 12:13:07;;;;;;;2.20;1.30;;;;;;;-128.00;-1.00;-1.00;101929;1252;1010308;-72
2023/02/19 12:15:50;;;;;;;2.50;1.40;;;;;;;-128.00;-1.00;-1.00;101820;1254;1013091;-73
2023/02/19 12:18:41;;;;;;;4.50;1.50;;;;;;;-128.00;-1.00;-1.00;101903;1257;1012391;-71
2023/02/19 12:21:27;;;;;;;3.80;1.80;;;;;;;-128.00;-1.00;-1.00;101895;1253;1015354;-72